Time;durP1;ratioP1;P1;durP2;ratioP2;P2;SDS_P1;SDS_P2;PMS_P1;PMS_P2;Temp;Humidity;BMP_temperature;BMP_pressure;BME280_temperature;BME280_humidity;BME280_pressure;Samples;Min_cycle;Max_cycle;Signal;HPM_P1;HPM_P2
2022/01/29 00:00:40;;;;;;;102.57;51.13;;;;;;;;;;5088718;28;20051;-72
2022/01/29 00:03:06;;;;;;;101.22;48.40;;;;;;;;;;5088296;28;20044;-72
2022/01/29 00:05:32;;;;;;;101.28;48.10;;;;;;;;;;5073189;28;20471;-72
2022/01/29 00:07:58;;;;;;;97.43;46.70;;;;;;;;;;5083852;28;20619;-73
2022/01/29 00:10:24;;;;;;;101.22;49.58;;;;;;;;;;5088693;28;20769;-72
2022/01/29 00:12:50;;;;;;;98.90;47.65;;;;;;;;;;5087896;28;20787;-73
2022/01/29 00:15:16;;;;;;;96.68;45.80;;;;;;;;;;5088393;28;20390;-72
2022/01/29 00:17:42;;;;;;;91.45;48.10;;;;;;;;;;5087738;28;20067;-72
2022/01/29 00:20:09;;;;;;;94.35;47.92;;;;;;;;;;5088785;28;20083;-72
2022/01/29 00:22:35;;;;;;;87.95;44.40;;;;;;;;;;5084103;28;20059;-73
2022/01/29 00:25:01;;;;;;;91.57;45.28;;;;;;;;;;5088315;28;20028;-73
2022/01/29 00:27:30;;;;;;;92.20;46.30;;;;;;;;;;5087688;28;20473;-73
2022/01/29 00:29:58;;;;;;;86.95;44.10;;;;;;;;;;5088332;28;20020;-73
2022/01/29 00:32:24;;;;;;;89.28;41.95;;;;;;;;;;5087515;28;20055;-73
2022/01/29 00:34:50;;;;;;;90.50;42.70;;;;;;;;;;5076968;28;20068;-73
2022/01/29 00:37:16;;;;;;;80.78;41.65;;;;;;;;;;5075078;28;20107;-73
2022/01/29 00:39:42;;;;;;;91.85;48.33;;;;;;;;;;5088342;28;20044;-73
2022/01/29 00:42:08;;;;;;;91.32;44.45;;;;;;;;;;5087186;28;20383;-73
2022/01/29 00:44:34;;;;;;;84.45;40.10;;;;;;;;;;5087505;28;20060;-72
2022/01/29 00:47:00;;;;;;;89.80;44.05;;;;;;;;;;5088370;28;20067;-73
2022/01/29 00:49:26;;;;;;;84.15;39.15;;;;;;;;;;5080719;28;20060;-72
2022/01/29 00:51:52;;;;;;;88.03;43.70;;;;;;;;;;5068242;28;20028;-72
2022/01/29 00:54:18;;;;;;;73.85;34.55;;;;;;;;;;5070003;28;20123;-73
2022/01/29 00:56:44;;;;;;;72.22;33.08;;;;;;;;;;5078092;28;20107;-72
2022/01/29 00:59:10;;;;;;;76.13;37.33;;;;;;;;;;5090355;28;20085;-73
2022/01/29 01:01:36;;;;;;;74.78;38.25;;;;;;;;;;5092029;28;20032;-73
2022/01/29 01:04:02;;;;;;;70.63;35.47;;;;;;;;;;5091932;28;20487;-72
2022/01/29 01:06:28;;;;;;;71.03;36.78;;;;;;;;;;5091525;28;20059;-73
2022/01/29 01:08:54;;;;;;;74.88;35.35;;;;;;;;;;5092239;28;20152;-73
2022/01/29 01:11:20;;;;;;;65.75;33.85;;;;;;;;;;5091744;28;20595;-73
2022/01/29 01:13:46;;;;;;;67.57;32.17;;;;;;;;;;5104871;28;20158;-72
2022/01/29 01:16:12;;;;;;;68.25;33.65;;;;;;;;;;5090022;28;20032;-72
2022/01/29 01:18:38;;;;;;;62.65;31.58;;;;;;;;;;5090969;28;20414;-72
2022/01/29 01:21:04;;;;;;;63.13;31.20;;;;;;;;;;5091531;28;20061;-73
2022/01/29 01:23:30;;;;;;;57.55;27.90;;;;;;;;;;5082311;28;20043;-72
2022/01/29 01:25:56;;;;;;;52.60;24.92;;;;;;;;;;5088634;28;20027;-73
2022/01/29 01:28:22;;;;;;;54.40;25.48;;;;;;;;;;5088546;28;20514;-73
2022/01/29 01:30:50;;;;;;;41.70;20.77;;;;;;;;;;5091731;28;20028;-72
2022/01/29 01:33:16;;;;;;;40.75;21.77;;;;;;;;;;5082893;28;20032;-73
2022/01/29 01:35:50;;;;;;;45.50;21.80;;;;;;;;;;5091499;28;20072;-73
2022/01/29 01:38:24;;;;;;;50.67;24.17;;;;;;;;;;5085102;28;20035;-72
2022/01/29 01:40:55;;;;;;;81.18;35.90;;;;;;;;;;5071364;28;20028;-73
2022/01/29 01:43:21;;;;;;;67.35;30.42;;;;;;;;;;5087575;28;20032;-73
2022/01/29 01:45:47;;;;;;;61.78;29.60;;;;;;;;;;5091662;28;20047;-73
2022/01/29 01:48:14;;;;;;;58.30;26.10;;;;;;;;;;5089079;28;20100;-72
2022/01/29 01:50:40;;;;;;;49.53;23.98;;;;;;;;;;5075981;28;20029;-73
2022/01/29 01:53:06;;;;;;;54.97;26.02;;;;;;;;;;5090176;28;20115;-72
2022/01/29 01:55:33;;;;;;;46.88;21.95;;;;;;;;;;5091453;28;20494;-73
2022/01/29 01:57:59;;;;;;;41.67;21.13;;;;;;;;;;5090862;28;20115;-72
2022/01/29 02:00:26;;;;;;;37.20;19.08;;;;;;;;;;5089788;28;20056;-73
2022/01/29 02:02:52;;;;;;;36.83;18.92;;;;;;;;;;5090259;28;20040;-72
2022/01/29 02:05:18;;;;;;;43.30;21.08;;;;;;;;;;5090499;28;20036;-73
2022/01/29 02:07:44;;;;;;;40.67;20.33;;;;;;;;;;5078223;28;20028;-73
2022/01/29 02:10:12;;;;;;;40.55;17.92;;;;;;;;;;5091088;28;20028;-72
2022/01/29 02:12:50;;;;;;;37.88;19.33;;;;;;;;;;5090183;28;20020;-73
2022/01/29 02:15:17;;;;;;;42.63;20.25;;;;;;;;;;5090901;28;20056;-73
2022/01/29 02:17:45;;;;;;;38.75;18.27;;;;;;;;;;5090038;28;20069;-73
2022/01/29 02:20:11;;;;;;;47.63;22.02;;;;;;;;;;5090878;28;20861;-72
2022/01/29 02:22:39;;;;;;;40.95;20.45;;;;;;;;;;5090092;28;20024;-73
2022/01/29 02:25:05;;;;;;;39.35;18.58;;;;;;;;;;5090805;28;20417;-72
2022/01/29 02:27:31;;;;;;;38.35;17.75;;;;;;;;;;5079036;28;20031;-72
2022/01/29 02:29:59;;;;;;;33.65;15.77;;;;;;;;;;5090849;28;20573;-73
2022/01/29 02:32:25;;;;;;;31.33;15.75;;;;;;;;;;5089374;28;20036;-72
2022/01/29 02:34:51;;;;;;;32.55;16.30;;;;;;;;;;5086725;28;20028;-73
2022/01/29 02:37:18;;;;;;;37.17;17.45;;;;;;;;;;5089725;28;20493;-73
2022/01/29 02:39:44;;;;;;;37.28;15.75;;;;;;;;;;5083162;28;20031;-73
2022/01/29 02:42:10;;;;;;;33.72;15.13;;;;;;;;;;5086389;28;20036;-72
2022/01/29 02:44:36;;;;;;;32.00;16.55;;;;;;;;;;5069998;28;20068;-72
2022/01/29 02:47:26;;;;;;;33.90;15.68;;;;;;;;;;5083480;28;20032;-72
2022/01/29 02:49:52;;;;;;;35.50;16.58;;;;;;;;;;5086746;28;20623;-73
2022/01/29 02:52:18;;;;;;;33.72;16.70;;;;;;;;;;5089423;28;20028;-72
2022/01/29 02:54:44;;;;;;;38.30;16.77;;;;;;;;;;5078247;28;20036;-73
2022/01/29 02:57:10;;;;;;;37.22;17.27;;;;;;;;;;5089342;28;20035;-72
2022/01/29 02:59:36;;;;;;;36.22;16.70;;;;;;;;;;5090045;28;20101;-73
2022/01/29 03:02:02;;;;;;;35.90;17.90;;;;;;;;;;5088843;28;20031;-72
2022/01/29 03:04:28;;;;;;;32.55;16.52;;;;;;;;;;5090008;28;20040;-73
2022/01/29 03:06:54;;;;;;;31.33;16.55;;;;;;;;;;5082468;28;20037;-73
2022/01/29 03:09:20;;;;;;;34.17;16.23;;;;;;;;;;5081252;28;20051;-72
2022/01/29 03:11:46;;;;;;;34.38;16.98;;;;;;;;;;5073569;28;20064;-73
2022/01/29 03:14:12;;;;;;;37.05;17.80;;;;;;;;;;5069842;28;20074;-73
2022/01/29 03:16:38;;;;;;;36.13;16.25;;;;;;;;;;5078657;28;20107;-73
2022/01/29 03:19:04;;;;;;;38.05;18.85;;;;;;;;;;5087187;28;20526;-72
2022/01/29 03:21:30;;;;;;;31.02;15.85;;;;;;;;;;5088023;28;20053;-73
2022/01/29 03:23:56;;;;;;;40.08;18.98;;;;;;;;;;5073082;28;20101;-73
2022/01/29 03:26:22;;;;;;;34.70;18.40;;;;;;;;;;5069409;28;20055;-73
2022/01/29 03:28:48;;;;;;;39.00;18.77;;;;;;;;;;5083265;28;20035;-72
2022/01/29 03:31:14;;;;;;;41.90;18.73;;;;;;;;;;5075164;28;20040;-73
2022/01/29 03:33:40;;;;;;;37.10;17.38;;;;;;;;;;5088684;28;20489;-73
2022/01/29 03:36:06;;;;;;;28.25;14.43;;;;;;;;;;5073622;28;20033;-72
2022/01/29 03:38:33;;;;;;;28.73;14.68;;;;;;;;;;5072777;28;20494;-72
2022/01/29 03:41:00;;;;;;;29.33;13.48;;;;;;;;;;5088874;28;20024;-73
2022/01/29 03:43:30;;;;;;;30.13;15.57;;;;;;;;;;5089342;28;20043;-72
2022/01/29 03:45:57;;;;;;;31.30;15.02;;;;;;;;;;5085045;28;20492;-73
2022/01/29 03:48:23;;;;;;;33.15;15.95;;;;;;;;;;5089607;28;20028;-73
2022/01/29 03:50:49;;;;;;;37.15;18.10;;;;;;;;;;5088035;28;20402;-73
2022/01/29 03:53:15;;;;;;;32.20;14.85;;;;;;;;;;5089396;28;20067;-73
2022/01/29 03:55:42;;;;;;;34.67;16.88;;;;;;;;;;5088641;28;20040;-73
2022/01/29 03:58:08;;;;;;;32.70;15.15;;;;;;;;;;5088692;28;20092;-73
2022/01/29 04:00:34;;;;;;;34.25;17.42;;;;;;;;;;5088625;28;20055;-73
2022/01/29 04:03:00;;;;;;;34.17;15.70;;;;;;;;;;5088273;28;20040;-72
2022/01/29 04:05:26;;;;;;;33.47;14.48;;;;;;;;;;5088816;28;20028;-72
2022/01/29 04:07:52;;;;;;;29.45;12.40;;;;;;;;;;5088757;28;20039;-73
2022/01/29 04:10:20;;;;;;;24.70;11.40;;;;;;;;;;5088929;28;20024;-72
2022/01/29 04:12:49;;;;;;;26.10;12.10;;;;;;;;;;5088963;28;20028;-73
2022/01/29 04:15:16;;;;;;;25.38;13.30;;;;;;;;;;5084575;28;20028;-72
2022/01/29 04:17:42;;;;;;;28.02;14.73;;;;;;;;;;5084522;28;20764;-73
2022/01/29 04:20:08;;;;;;;30.02;14.20;;;;;;;;;;5087873;28;20043;-73
2022/01/29 04:22:34;;;;;;;30.73;13.55;;;;;;;;;;5088978;28;20028;-73
2022/01/29 04:25:00;;;;;;;30.88;14.88;;;;;;;;;;5088790;28;20149;-73
2022/01/29 04:27:45;;;;;;;29.13;15.05;;;;;;;;;;5088615;28;20514;-72
2022/01/29 04:30:27;;;;;;;26.48;13.02;;;;;;;;;;5084099;28;20090;-73
2022/01/29 04:35:20;;;;;;;27.23;14.13;;;;;;;;;;5093182;28;20032;-72
2022/01/29 04:37:47;;;;;;;27.55;14.40;;;;;;;;;;5088156;28;20029;-73
2022/01/29 04:40:13;;;;;;;35.28;17.73;;;;;;;;;;5089073;28;20032;-73
2022/01/29 04:42:39;;;;;;;34.97;16.33;;;;;;;;;;5077472;28;20020;-73
2022/01/29 04:45:05;;;;;;;28.73;15.50;;;;;;;;;;5092304;28;20040;-72
2022/01/29 04:47:31;;;;;;;29.20;14.75;;;;;;;;;;5092143;28;20409;-73
2022/01/29 04:49:57;;;;;;;25.92;12.65;;;;;;;;;;5090094;28;20032;-73
2022/01/29 04:52:23;;;;;;;26.23;12.35;;;;;;;;;;5092260;28;20570;-73
2022/01/29 04:54:49;;;;;;;31.00;13.00;;;;;;;;;;5087606;28;20107;-73
2022/01/29 04:57:15;;;;;;;25.33;12.68;;;;;;;;;;5091315;28;20043;-73
2022/01/29 04:59:41;;;;;;;30.05;14.80;;;;;;;;;;5089380;28;20098;-73
2022/01/29 05:02:07;;;;;;;27.42;13.77;;;;;;;;;;5092373;28;20028;-73
2022/01/29 05:04:33;;;;;;;32.00;15.90;;;;;;;;;;5092464;28;20047;-73
2022/01/29 05:06:59;;;;;;;32.80;16.73;;;;;;;;;;5092136;28;20032;-73
2022/01/29 05:09:25;;;;;;;33.83;18.73;;;;;;;;;;5092318;28;20029;-73
2022/01/29 05:11:53;;;;;;;35.15;17.42;;;;;;;;;;5082792;28;20040;-73
2022/01/29 05:14:37;;;;;;;28.77;14.95;;;;;;;;;;5089700;28;20436;-73
2022/01/29 05:27:58;;;;;;;26.02;14.02;;;;;;;;;;5086116;28;20044;-72
2022/01/29 05:30:24;;;;;;;35.65;17.20;;;;;;;;;;5088628;28;20032;-73
2022/01/29 05:32:50;;;;;;;31.75;17.08;;;;;;;;;;5091824;28;20486;-73
2022/01/29 05:35:16;;;;;;;38.50;19.50;;;;;;;;;;5088020;28;20025;-73
2022/01/29 05:37:42;;;;;;;36.42;16.67;;;;;;;;;;5091760;28;20047;-73
2022/01/29 05:40:09;;;;;;;35.00;20.08;;;;;;;;;;5078551;28;20032;-73
2022/01/29 05:42:35;;;;;;;43.13;21.70;;;;;;;;;;5073108;28;20043;-73
2022/01/29 05:45:01;;;;;;;58.53;27.95;;;;;;;;;;5091318;28;20387;-73
2022/01/29 05:47:27;;;;;;;73.63;37.83;;;;;;;;;;5091547;28;20028;-73
2022/01/29 05:49:53;;;;;;;73.10;33.17;;;;;;;;;;5083575;28;20035;-72
2022/01/29 05:52:19;;;;;;;57.92;28.17;;;;;;;;;;5091636;28;20055;-73
2022/01/29 05:54:45;;;;;;;54.75;25.30;;;;;;;;;;5080688;28;20045;-73
2022/01/29 05:57:11;;;;;;;53.50;26.88;;;;;;;;;;5076323;28;20037;-72
2022/01/29 05:59:37;;;;;;;50.08;26.35;;;;;;;;;;5088539;28;20059;-72
2022/01/29 06:02:03;;;;;;;45.50;24.95;;;;;;;;;;5087354;28;20032;-73
2022/01/29 06:04:29;;;;;;;39.30;19.33;;;;;;;;;;5087387;28;20037;-72
2022/01/29 06:06:55;;;;;;;31.23;16.70;;;;;;;;;;5087393;28;20035;-73
2022/01/29 06:09:21;;;;;;;30.85;17.23;;;;;;;;;;5079446;28;20039;-72
2022/01/29 06:11:47;;;;;;;35.63;15.02;;;;;;;;;;5090774;28;20055;-73
2022/01/29 06:14:13;;;;;;;29.23;14.73;;;;;;;;;;5089768;28;20044;-73
2022/01/29 06:16:39;;;;;;;33.33;14.98;;;;;;;;;;5086580;28;20093;-72
2022/01/29 06:19:05;;;;;;;25.35;13.07;;;;;;;;;;5086932;28;20072;-73
2022/01/29 06:21:31;;;;;;;30.33;14.80;;;;;;;;;;5083041;28;20034;-73
2022/01/29 06:23:58;;;;;;;28.15;15.35;;;;;;;;;;5084419;28;20123;-73
2022/01/29 06:26:24;;;;;;;32.97;15.52;;;;;;;;;;5082631;28;20107;-73
2022/01/29 06:28:50;;;;;;;35.55;19.67;;;;;;;;;;5086736;28;20177;-72
2022/01/29 06:31:16;;;;;;;31.55;16.25;;;;;;;;;;5085246;28;20636;-73
2022/01/29 06:33:42;;;;;;;29.60;16.00;;;;;;;;;;5105987;28;20208;-73
2022/01/29 06:36:09;;;;;;;34.50;16.85;;;;;;;;;;5083868;28;20034;-73
2022/01/29 06:38:35;;;;;;;27.15;15.77;;;;;;;;;;5083228;28;20542;-72
2022/01/29 06:41:01;;;;;;;34.33;17.20;;;;;;;;;;5086324;28;20032;-73
2022/01/29 06:43:28;;;;;;;30.70;14.68;;;;;;;;;;5086824;28;20032;-72
2022/01/29 06:45:54;;;;;;;28.83;15.00;;;;;;;;;;5088112;28;20474;-73
2022/01/29 06:48:20;;;;;;;29.40;15.73;;;;;;;;;;5090220;28;20040;-73
2022/01/29 06:50:46;;;;;;;34.53;16.70;;;;;;;;;;5087449;28;20031;-73
2022/01/29 06:53:12;;;;;;;31.38;16.42;;;;;;;;;;5077228;28;20037;-71
2022/01/29 06:55:41;;;;;;;31.65;15.95;;;;;;;;;;5080821;28;20099;-72
2022/01/29 06:58:07;;;;;;;32.17;14.88;;;;;;;;;;5081492;28;20382;-73
2022/01/29 07:00:33;;;;;;;33.83;16.23;;;;;;;;;;5078810;28;20513;-73
2022/01/29 07:03:02;;;;;;;32.00;15.55;;;;;;;;;;5078893;28;20032;-72
2022/01/29 07:05:28;;;;;;;34.05;16.42;;;;;;;;;;5081393;28;20582;-72
2022/01/29 07:07:54;;;;;;;30.52;15.23;;;;;;;;;;5085590;28;20451;-72
2022/01/29 07:10:20;;;;;;;28.80;15.43;;;;;;;;;;5083267;28;20058;-72
2022/01/29 07:12:46;;;;;;;34.13;15.77;;;;;;;;;;5087746;28;20040;-72
2022/01/29 07:15:13;;;;;;;30.13;16.15;;;;;;;;;;5086937;28;20024;-71
2022/01/29 07:17:39;;;;;;;32.97;15.70;;;;;;;;;;5084995;28;20024;-72
2022/01/29 07:20:06;;;;;;;39.38;18.67;;;;;;;;;;5086830;28;20479;-72
2022/01/29 07:22:32;;;;;;;38.03;20.17;;;;;;;;;;5084081;28;20039;-72
2022/01/29 07:24:58;;;;;;;41.92;22.42;;;;;;;;;;5086065;28;20032;-72
2022/01/29 07:27:24;;;;;;;40.00;19.15;;;;;;;;;;5081306;28;20067;-72
2022/01/29 07:29:50;;;;;;;46.75;22.70;;;;;;;;;;5085847;28;20028;-72
2022/01/29 07:32:16;;;;;;;36.72;19.58;;;;;;;;;;5085852;28;20479;-72
2022/01/29 07:34:42;;;;;;;41.70;20.92;;;;;;;;;;5087640;28;20054;-71
2022/01/29 07:37:08;;;;;;;34.08;18.45;;;;;;;;;;5082692;28;20037;-71
2022/01/29 07:39:34;;;;;;;37.60;18.33;;;;;;;;;;5088280;28;20123;-72
2022/01/29 07:42:00;;;;;;;35.72;19.15;;;;;;;;;;5088214;28;20031;-72
2022/01/29 07:44:28;;;;;;;33.05;17.58;;;;;;;;;;5085976;28;20044;-72
2022/01/29 07:46:54;;;;;;;35.60;16.48;;;;;;;;;;5085957;28;20024;-72
2022/01/29 07:49:20;;;;;;;30.77;18.42;;;;;;;;;;5078546;28;20521;-72
2022/01/29 07:51:46;;;;;;;34.17;17.52;;;;;;;;;;5075592;28;20031;-72
2022/01/29 07:54:12;;;;;;;50.35;22.63;;;;;;;;;;5087791;28;20044;-72
2022/01/29 07:56:38;;;;;;;59.13;25.90;;;;;;;;;;5081003;28;20020;-72
2022/01/29 07:59:04;;;;;;;56.15;29.02;;;;;;;;;;5088483;28;20036;-72
2022/01/29 08:01:30;;;;;;;66.18;30.90;;;;;;;;;;5086456;28;20028;-72
2022/01/29 08:03:56;;;;;;;66.00;32.88;;;;;;;;;;5081303;28;20127;-72
2022/01/29 08:06:23;;;;;;;69.90;34.05;;;;;;;;;;5075545;28;20020;-72
2022/01/29 08:08:50;;;;;;;108.95;51.25;;;;;;;;;;5082712;28;20115;-72
2022/01/29 08:11:16;;;;;;;87.03;43.42;;;;;;;;;;5078462;28;20033;-72
2022/01/29 08:13:43;;;;;;;165.18;78.75;;;;;;;;;;5081257;28;20048;-72
2022/01/29 08:16:09;;;;;;;100.22;49.30;;;;;;;;;;5080513;28;20494;-72
2022/01/29 08:18:36;;;;;;;82.53;42.15;;;;;;;;;;5079492;28;20039;-72
2022/01/29 08:21:02;;;;;;;84.60;42.38;;;;;;;;;;5084171;28;20028;-72
2022/01/29 08:23:28;;;;;;;90.75;42.92;;;;;;;;;;5082921;28;20050;-73
2022/01/29 08:25:54;;;;;;;73.70;37.40;;;;;;;;;;5080645;28;20032;-72
2022/01/29 08:28:20;;;;;;;62.35;29.80;;;;;;;;;;5079035;28;20348;-73
2022/01/29 08:30:49;;;;;;;51.45;26.52;;;;;;;;;;5079849;28;20052;-72
2022/01/29 08:33:17;;;;;;;50.72;26.85;;;;;;;;;;5088915;28;20044;-73
2022/01/29 08:35:43;;;;;;;57.10;30.00;;;;;;;;;;5079616;28;20035;-73
2022/01/29 08:38:12;;;;;;;48.70;25.73;;;;;;;;;;5085193;28;20055;-72
2022/01/29 08:40:38;;;;;;;42.25;22.23;;;;;;;;;;5082915;28;20051;-73
2022/01/29 08:43:04;;;;;;;42.50;23.88;;;;;;;;;;5082121;28;20051;-72
2022/01/29 08:45:30;;;;;;;38.88;22.95;;;;;;;;;;5083195;28;20035;-73
2022/01/29 08:47:56;;;;;;;35.78;20.17;;;;;;;;;;5087277;28;20039;-73
2022/01/29 08:50:22;;;;;;;29.30;14.75;;;;;;;;;;5075639;28;20020;-73
2022/01/29 08:52:48;;;;;;;35.35;17.77;;;;;;;;;;5084560;28;20041;-72
2022/01/29 08:55:14;;;;;;;42.95;22.60;;;;;;;;;;5074283;28;20089;-72
2022/01/29 08:57:41;;;;;;;41.80;22.15;;;;;;;;;;5084385;28;20047;-73
2022/01/29 09:00:08;;;;;;;36.97;21.60;;;;;;;;;;5087395;28;20517;-73
2022/01/29 09:02:34;;;;;;;34.38;19.58;;;;;;;;;;5079465;28;20040;-73
2022/01/29 09:05:01;;;;;;;37.45;20.30;;;;;;;;;;5085923;28;20081;-73
2022/01/29 09:07:28;;;;;;;30.70;17.90;;;;;;;;;;5080991;28;20016;-73
2022/01/29 09:09:54;;;;;;;28.52;15.98;;;;;;;;;;5087278;28;20688;-73
2022/01/29 09:12:21;;;;;;;28.25;15.35;;;;;;;;;;5072877;28;20028;-73
2022/01/29 09:14:47;;;;;;;27.05;15.73;;;;;;;;;;5079895;28;20135;-72
2022/01/29 09:17:13;;;;;;;26.55;15.02;;;;;;;;;;5088148;28;20043;-73
2022/01/29 09:19:39;;;;;;;30.17;17.02;;;;;;;;;;5091611;28;20032;-73
2022/01/29 09:22:05;;;;;;;33.38;17.25;;;;;;;;;;5091291;28;20526;-73
2022/01/29 09:24:31;;;;;;;37.35;19.45;;;;;;;;;;5089305;28;20036;-73
2022/01/29 09:26:57;;;;;;;45.30;21.15;;;;;;;;;;5090721;28;20043;-72
2022/01/29 09:29:23;;;;;;;39.15;22.30;;;;;;;;;;5091139;28;20024;-73
2022/01/29 09:31:49;;;;;;;32.90;19.75;;;;;;;;;;5082660;28;20051;-73
2022/01/29 09:34:15;;;;;;;33.35;20.42;;;;;;;;;;5102086;28;20046;-72
2022/01/29 09:36:41;;;;;;;39.28;23.02;;;;;;;;;;5081625;28;20559;-73
2022/01/29 09:39:07;;;;;;;39.85;25.20;;;;;;;;;;5089636;28;20038;-72
2022/01/29 09:41:34;;;;;;;33.25;20.05;;;;;;;;;;5081954;28;20027;-73
2022/01/29 09:44:00;;;;;;;37.58;23.45;;;;;;;;;;5090536;28;20062;-73
2022/01/29 09:46:32;;;;;;;33.75;20.42;;;;;;;;;;5090189;28;20032;-72
2022/01/29 09:48:59;;;;;;;28.98;15.30;;;;;;;;;;5090781;28;20111;-73
2022/01/29 09:51:26;;;;;;;28.60;14.93;;;;;;;;;;5090514;28;20424;-72
2022/01/29 09:53:52;;;;;;;25.70;13.18;;;;;;;;;;5090913;28;20086;-72
2022/01/29 09:56:18;;;;;;;24.00;11.93;;;;;;;;;;5089990;28;20035;-73
2022/01/29 09:58:44;;;;;;;23.35;12.32;;;;;;;;;;5082561;28;20143;-73
2022/01/29 10:01:10;;;;;;;25.73;12.73;;;;;;;;;;5087104;28;20046;-73
2022/01/29 10:03:36;;;;;;;28.10;16.13;;;;;;;;;;5086653;28;20044;-73
2022/01/29 10:06:03;;;;;;;27.92;16.05;;;;;;;;;;5082200;28;20111;-73
2022/01/29 10:08:30;;;;;;;32.63;18.63;;;;;;;;;;5069953;28;20029;-73
2022/01/29 10:10:58;;;;;;;35.17;17.65;;;;;;;;;;5083468;28;20036;-73
2022/01/29 10:13:24;;;;;;;44.20;20.73;;;;;;;;;;5082467;28;20439;-72
2022/01/29 10:15:50;;;;;;;46.40;22.13;;;;;;;;;;5089780;28;20060;-72
2022/01/29 10:18:21;;;;;;;37.33;18.58;;;;;;;;;;5078635;28;20055;-73
2022/01/29 10:20:47;;;;;;;38.85;19.55;;;;;;;;;;5084850;28;20035;-72
2022/01/29 10:23:13;;;;;;;41.67;22.30;;;;;;;;;;5083172;28;20036;-72
2022/01/29 10:25:43;;;;;;;29.52;15.38;;;;;;;;;;5084565;28;20032;-72
2022/01/29 10:28:12;;;;;;;28.33;14.05;;;;;;;;;;5081319;28;20024;-72
2022/01/29 10:30:58;;;;;;;22.77;11.73;;;;;;;;;;5084268;28;20356;-72
2022/01/29 10:33:29;;;;;;;24.80;12.43;;;;;;;;;;5086919;28;20036;-72
2022/01/29 10:35:56;;;;;;;22.67;10.63;;;;;;;;;;5089766;28;20024;-72
2022/01/29 10:38:26;;;;;;;22.83;11.80;;;;;;;;;;5090093;28;20966;-73
2022/01/29 10:41:11;;;;;;;20.27;11.70;;;;;;;;;;5090102;28;20510;-72
2022/01/29 10:43:53;;;;;;;21.20;11.05;;;;;;;;;;5084457;28;20156;-73
2022/01/29 10:46:32;;;;;;;21.67;10.30;;;;;;;;;;5087552;28;20123;-72
2022/01/29 10:48:58;;;;;;;17.20;9.30;;;;;;;;;;5087099;28;20040;-73
2022/01/29 10:51:24;;;;;;;21.15;9.75;;;;;;;;;;5090005;28;20457;-72
2022/01/29 10:53:54;;;;;;;17.85;9.73;;;;;;;;;;5075374;28;20040;-72
2022/01/29 10:56:21;;;;;;;14.27;8.45;;;;;;;;;;5088079;28;20028;-72
2022/01/29 10:58:50;;;;;;;25.02;12.85;;;;;;;;;;5089238;28;20040;-72
2022/01/29 11:01:22;;;;;;;21.27;12.25;;;;;;;;;;5084194;28;20044;-72
2022/01/29 11:03:50;;;;;;;22.95;12.07;;;;;;;;;;5085736;28;20047;-72
2022/01/29 11:06:19;;;;;;;23.35;12.73;;;;;;;;;;5088166;28;20024;-72
2022/01/29 11:08:45;;;;;;;23.65;13.63;;;;;;;;;;5084218;28;20032;-72
2022/01/29 11:11:13;;;;;;;21.98;11.80;;;;;;;;;;5085331;28;20070;-74
2022/01/29 11:13:40;;;;;;;21.70;12.45;;;;;;;;;;5081334;28;20032;-73
2022/01/29 11:16:06;;;;;;;23.33;11.93;;;;;;;;;;5082758;28;20044;-72
2022/01/29 11:18:33;;;;;;;19.90;9.98;;;;;;;;;;5077953;28;20039;-72
2022/01/29 11:21:00;;;;;;;21.67;11.25;;;;;;;;;;5081847;28;20156;-70
2022/01/29 11:23:27;;;;;;;22.05;10.00;;;;;;;;;;5082076;28;20029;-70
2022/01/29 11:25:57;;;;;;;16.73;8.20;;;;;;;;;;5079758;28;20028;-70
2022/01/29 11:28:26;;;;;;;13.35;6.18;;;;;;;;;;5082552;28;20102;-70
2022/01/29 11:31:11;;;;;;;13.45;6.85;;;;;;;;;;5083195;28;20048;-70
2022/01/29 11:33:55;;;;;;;20.70;8.88;;;;;;;;;;5079748;28;20032;-70
2022/01/29 11:36:21;;;;;;;16.52;6.97;;;;;;;;;;5085518;28;20096;-70
2022/01/29 11:38:47;;;;;;;16.17;7.57;;;;;;;;;;5079889;28;20060;-70
2022/01/29 11:41:14;;;;;;;15.63;6.88;;;;;;;;;;5081675;28;20110;-70
2022/01/29 11:43:40;;;;;;;16.67;8.77;;;;;;;;;;5082418;28;20032;-71
2022/01/29 11:46:21;;;;;;;15.40;7.45;;;;;;;;;;5087853;28;20035;-70
2022/01/29 11:48:55;;;;;;;16.30;7.88;;;;;;;;;;5080366;28;20489;-70
2022/01/29 11:51:40;;;;;;;15.88;5.75;;;;;;;;;;5085462;28;20028;-70
2022/01/29 11:54:08;;;;;;;20.52;8.70;;;;;;;;;;5074121;28;20115;-70
2022/01/29 11:56:35;;;;;;;18.63;8.10;;;;;;;;;;5088061;28;20024;-70
2022/01/29 11:59:19;;;;;;;15.27;6.22;;;;;;;;;;5087494;28;20093;-70
2022/01/29 12:01:46;;;;;;;8.75;3.10;;;;;;;;;;5082992;28;20492;-70
2022/01/29 12:04:12;;;;;;;12.85;4.25;;;;;;;;;;5087030;28;20510;-70
2022/01/29 12:06:58;;;;;;;10.38;4.25;;;;;;;;;;5088362;28;20050;-70
2022/01/29 12:09:25;;;;;;;12.55;5.22;;;;;;;;;;5090525;28;20032;-70
2022/01/29 12:12:10;;;;;;;8.35;4.50;;;;;;;;;;5088784;28;20028;-70
2022/01/29 12:14:36;;;;;;;12.50;5.07;;;;;;;;;;5088349;28;20130;-70
2022/01/29 12:17:02;;;;;;;11.93;5.18;;;;;;;;;;5084816;28;20109;-70
2022/01/29 12:19:47;;;;;;;12.18;6.45;;;;;;;;;;5084841;28;20110;-70
2022/01/29 12:22:20;;;;;;;13.25;6.47;;;;;;;;;;5072685;28;20032;-70
2022/01/29 12:24:50;;;;;;;15.65;6.57;;;;;;;;;;5087899;28;20147;-70
2022/01/29 12:27:16;;;;;;;13.27;6.90;;;;;;;;;;5088630;28;20407;-70
2022/01/29 12:29:42;;;;;;;13.45;7.53;;;;;;;;;;5083023;28;20597;-70
2022/01/29 12:32:09;;;;;;;14.13;6.57;;;;;;;;;;5077131;28;20028;-70
2022/01/29 12:34:35;;;;;;;12.23;5.75;;;;;;;;;;5088002;28;20032;-70
2022/01/29 12:37:12;;;;;;;11.98;5.28;;;;;;;;;;5088398;28;20031;-70
2022/01/29 12:39:39;;;;;;;10.60;5.30;;;;;;;;;;5084051;28;20031;-70
2022/01/29 12:44:41;;;;;;;9.48;4.50;;;;;;;;;;5082169;28;20047;-70
2022/01/29 12:47:07;;;;;;;10.70;3.75;;;;;;;;;;5079630;28;20420;-71
2022/01/29 12:49:43;;;;;;;7.60;3.55;;;;;;;;;;5085568;28;20024;-70
2022/01/29 12:52:14;;;;;;;8.07;3.65;;;;;;;;;;5069153;28;20033;-70
2022/01/29 12:54:40;;;;;;;11.50;3.42;;;;;;;;;;5075858;28;20044;-70
2022/01/29 12:57:07;;;;;;;7.53;3.20;;;;;;;;;;5091739;28;20036;-70
2022/01/29 12:59:36;;;;;;;8.85;3.95;;;;;;;;;;5091172;28;20131;-70
2022/01/29 13:02:05;;;;;;;13.45;8.55;;;;;;;;;;5072632;28;20036;-70
2022/01/29 13:04:31;;;;;;;10.10;6.00;;;;;;;;;;5081904;28;20066;-70
2022/01/29 13:07:04;;;;;;;8.77;3.38;;;;;;;;;;5082439;28;20035;-70
2022/01/29 13:09:34;;;;;;;8.10;3.60;;;;;;;;;;5086717;28;20036;-71
2022/01/29 13:12:12;;;;;;;8.00;3.50;;;;;;;;;;5080757;28;20132;-70
2022/01/29 13:14:38;;;;;;;7.63;2.92;;;;;;;;;;5082958;28;20030;-69
2022/01/29 13:17:08;;;;;;;7.55;3.13;;;;;;;;;;5087831;28;20039;-69
2022/01/29 13:19:35;;;;;;;8.90;4.13;;;;;;;;;;5090479;28;20545;-70
2022/01/29 13:22:05;;;;;;;8.73;4.25;;;;;;;;;;5091091;28;20106;-69
2022/01/29 13:24:36;;;;;;;6.50;3.40;;;;;;;;;;5091136;28;20047;-69
2022/01/29 13:27:02;;;;;;;6.67;3.20;;;;;;;;;;5072607;28;20132;-70
2022/01/29 13:29:33;;;;;;;5.25;2.63;;;;;;;;;;5073943;28;20035;-70
2022/01/29 13:32:00;;;;;;;6.78;2.63;;;;;;;;;;5076785;28;20145;-69
2022/01/29 13:34:30;;;;;;;6.68;3.10;;;;;;;;;;5090365;28;20119;-70
2022/01/29 13:36:56;;;;;;;6.88;2.88;;;;;;;;;;5091087;28;20040;-70
2022/01/29 13:39:25;;;;;;;4.72;2.22;;;;;;;;;;5091038;28;20530;-70
2022/01/29 13:42:10;;;;;;;6.63;2.78;;;;;;;;;;5090005;28;20035;-70
2022/01/29 13:44:36;;;;;;;7.00;2.30;;;;;;;;;;5086245;28;20114;-70
2022/01/29 13:47:06;;;;;;;9.00;2.80;;;;;;;;;;5090534;28;20032;-70
2022/01/29 13:49:32;;;;;;;6.05;2.38;;;;;;;;;;5089577;28;20028;-70
2022/01/29 13:51:58;;;;;;;5.13;1.55;;;;;;;;;;5089950;28;20035;-70
2022/01/29 13:54:24;;;;;;;4.00;1.10;;;;;;;;;;5090938;28;20059;-70
2022/01/29 13:56:50;;;;;;;5.32;1.55;;;;;;;;;;5086324;28;20064;-70
2022/01/29 13:59:20;;;;;;;4.07;1.55;;;;;;;;;;5086972;28;20040;-70
2022/01/29 14:01:50;;;;;;;7.05;1.50;;;;;;;;;;5083186;28;20048;-70
2022/01/29 14:04:24;;;;;;;3.90;1.63;;;;;;;;;;5090232;28;20471;-70
2022/01/29 14:06:56;;;;;;;4.07;1.35;;;;;;;;;;5085999;28;20028;-70
2022/01/29 14:09:27;;;;;;;10.13;4.90;;;;;;;;;;5090923;28;20463;-70
2022/01/29 14:12:05;;;;;;;7.60;3.17;;;;;;;;;;5099966;28;20123;-69
2022/01/29 14:14:37;;;;;;;11.68;3.72;;;;;;;;;;5089210;28;20039;-69
2022/01/29 14:17:23;;;;;;;6.85;2.30;;;;;;;;;;5077328;28;20086;-70
2022/01/29 14:19:52;;;;;;;5.65;2.00;;;;;;;;;;5082476;28;20048;-70
2022/01/29 14:22:18;;;;;;;7.65;2.42;;;;;;;;;;5088424;28;20530;-71
2022/01/29 14:24:45;;;;;;;12.60;3.75;;;;;;;;;;5089811;28;20043;-71
2022/01/29 14:27:11;;;;;;;7.90;2.70;;;;;;;;;;5086661;28;20060;-71
2022/01/29 14:29:38;;;;;;;8.27;3.15;;;;;;;;;;5087188;28;20501;-71
2022/01/29 14:32:05;;;;;;;8.30;4.32;;;;;;;;;;5083317;28;20940;-71
2022/01/29 14:34:31;;;;;;;6.25;2.55;;;;;;;;;;5086153;28;20502;-71
2022/01/29 14:36:58;;;;;;;6.35;2.13;;;;;;;;;;5089463;28;20028;-71
2022/01/29 14:39:25;;;;;;;9.25;2.63;;;;;;;;;;5089980;28;20040;-71